createdAt,value
2023-03-05T00:02:26.052Z,3.93
2023-03-05T00:04:53.734Z,3.07
2023-03-05T00:07:21.771Z,3.30
2023-03-05T00:09:49.071Z,3.13
2023-03-05T00:12:17.330Z,3.57
2023-03-05T00:14:44.486Z,4.10
2023-03-05T00:17:11.871Z,4.40
2023-03-05T00:19:39.012Z,3.70
2023-03-05T00:22:06.542Z,4.30
2023-03-05T00:24:33.841Z,3.37
2023-03-05T00:27:01.124Z,2.50
2023-03-05T00:29:31.380Z,3.77
2023-03-05T00:31:58.858Z,4.00
2023-03-05T00:34:28.095Z,4.47
2023-03-05T00:36:55.278Z,4.87
2023-03-05T00:39:22.703Z,2.80
2023-03-05T00:41:50.075Z,5.07
2023-03-05T00:44:17.346Z,3.90
2023-03-05T00:46:46.961Z,3.37
2023-03-05T00:49:17.854Z,4.70
2023-03-05T00:51:45.087Z,4.10
2023-03-05T00:54:12.454Z,5.27
2023-03-05T00:56:39.595Z,2.43
2023-03-05T00:59:07.111Z,3.37
2023-03-05T01:01:34.523Z,3.50
2023-03-05T01:04:02.131Z,3.40
2023-03-05T01:06:29.718Z,2.90
2023-03-05T01:08:57.046Z,3.10
2023-03-05T01:11:25.462Z,2.60
2023-03-05T01:13:55.315Z,4.20
2023-03-05T01:16:22.816Z,2.53
2023-03-05T01:18:50.291Z,3.03
2023-03-05T01:21:17.265Z,4.13
2023-03-05T01:23:44.647Z,3.47
2023-03-05T01:26:11.532Z,2.50
2023-03-05T01:28:38.625Z,3.40
2023-03-05T01:31:10.793Z,2.57
2023-03-05T01:33:38.440Z,2.90
2023-03-05T01:36:13.374Z,3.13
2023-03-05T01:38:41.291Z,1.37
2023-03-05T01:41:10.146Z,2.17
2023-03-05T01:43:38.463Z,3.90
2023-03-05T01:46:24.188Z,2.70
2023-03-05T01:49:01.700Z,3.40
2023-03-05T01:51:32.683Z,2.83
2023-03-05T01:54:01.775Z,3.40
2023-03-05T01:56:30.544Z,2.80
2023-03-05T01:59:03.546Z,2.70
2023-03-05T02:01:38.580Z,3.50
2023-03-05T02:04:06.898Z,2.47
2023-03-05T02:06:34.445Z,2.60
2023-03-05T02:09:01.293Z,2.03
2023-03-05T02:11:28.412Z,1.67
2023-03-05T02:13:56.045Z,3.00
2023-03-05T02:16:22.971Z,3.23
2023-03-05T02:18:49.920Z,2.33
2023-03-05T02:21:28.556Z,2.97
2023-03-05T02:23:55.651Z,2.80
2023-03-05T02:26:22.522Z,2.30
2023-03-05T02:28:54.374Z,2.43
2023-03-05T02:31:24.038Z,3.50
2023-03-05T02:33:51.815Z,2.87
2023-03-05T02:36:19.457Z,2.20
2023-03-05T02:38:47.316Z,1.63
2023-03-05T02:41:14.798Z,1.83
2023-03-05T02:43:41.911Z,1.80
2023-03-05T02:46:08.933Z,2.20
2023-03-05T02:48:35.791Z,3.33
2023-03-05T02:51:04.125Z,1.97
2023-03-05T02:53:30.942Z,2.30
2023-03-05T02:55:57.818Z,2.90
2023-03-05T02:58:24.718Z,3.17
2023-03-05T03:00:51.665Z,3.10
2023-03-05T03:03:18.851Z,3.13
2023-03-05T03:05:45.701Z,1.77
2023-03-05T03:08:12.538Z,1.87
2023-03-05T03:10:39.384Z,2.00
2023-03-05T03:13:06.239Z,2.40
2023-03-05T03:15:33.210Z,2.00
2023-03-05T03:18:00.137Z,1.83
2023-03-05T03:20:26.977Z,1.87
2023-03-05T03:22:53.877Z,3.00
2023-03-05T03:25:23.105Z,2.80
2023-03-05T03:27:50.083Z,2.10
2023-03-05T03:30:17.519Z,2.00
2023-03-05T03:32:44.789Z,2.30
2023-03-05T03:35:13.045Z,2.67
2023-03-05T03:37:40.591Z,2.07
2023-03-05T03:40:08.032Z,1.67
2023-03-05T03:42:35.024Z,2.43
2023-03-05T03:45:02.462Z,2.40
2023-03-05T03:47:30.644Z,2.03
2023-03-05T03:49:58.795Z,2.97
2023-03-05T03:52:26.434Z,2.07
2023-03-05T03:54:55.614Z,3.90
2023-03-05T03:57:22.630Z,3.00
2023-03-05T03:59:50.316Z,2.27
2023-03-05T04:02:18.168Z,1.67
2023-03-05T04:04:45.110Z,3.20
2023-03-05T04:07:12.080Z,2.40
2023-03-05T04:09:39.231Z,2.80
2023-03-05T04:12:06.451Z,3.43
2023-03-05T04:14:33.564Z,2.07
2023-03-05T04:17:00.457Z,2.13
2023-03-05T04:19:28.401Z,3.43
2023-03-05T04:21:55.298Z,2.83
2023-03-05T04:24:22.155Z,2.70
2023-03-05T04:26:49.186Z,3.33
2023-03-05T04:29:16.030Z,3.13
2023-03-05T04:31:42.947Z,3.37
2023-03-05T04:34:09.804Z,3.30
2023-03-05T04:36:37.036Z,3.00
2023-03-05T04:39:04.779Z,4.10
2023-03-05T04:41:31.729Z,6.50
2023-03-05T04:43:58.631Z,2.97
2023-03-05T04:46:25.519Z,2.30
2023-03-05T04:48:52.550Z,3.70
2023-03-05T04:51:22.725Z,3.73
2023-03-05T04:53:49.646Z,6.33
2023-03-05T04:56:16.488Z,6.70
2023-03-05T04:58:43.348Z,6.17
2023-03-05T05:01:10.702Z,5.80
2023-03-05T05:03:37.846Z,3.23
2023-03-05T05:06:04.927Z,8.43
2023-03-05T05:08:31.896Z,3.83
2023-03-05T05:11:01.211Z,20.30
2023-03-05T05:13:28.783Z,7.10
2023-03-05T05:15:56.314Z,6.13
2023-03-05T05:18:23.554Z,9.57
2023-03-05T05:20:50.545Z,12.37
2023-03-05T05:23:17.721Z,8.70
2023-03-05T05:25:45.489Z,5.13
2023-03-05T05:28:13.032Z,2.07
2023-03-05T05:30:39.902Z,6.33
2023-03-05T05:33:06.750Z,6.60
2023-03-05T05:35:33.707Z,2.83
2023-03-05T05:38:00.581Z,2.87
2023-03-05T05:40:27.395Z,3.80
2023-03-05T05:42:54.284Z,3.80
2023-03-05T05:45:21.184Z,7.70
2023-03-05T05:47:48.168Z,8.27
2023-03-05T05:50:15.216Z,4.93
2023-03-05T05:52:42.368Z,7.93
2023-03-05T05:55:09.922Z,7.77
2023-03-05T05:57:37.050Z,6.23
2023-03-05T06:00:08.152Z,6.47
2023-03-05T06:02:39.057Z,3.90
2023-03-05T06:05:06.748Z,3.30
2023-03-05T06:07:35.649Z,2.57
2023-03-05T06:10:03.159Z,2.17
2023-03-05T06:12:30.388Z,4.00
2023-03-05T06:14:57.915Z,5.67
2023-03-05T06:17:30.278Z,5.07
2023-03-05T06:19:58.364Z,4.67
2023-03-05T06:22:34.988Z,4.70
2023-03-05T06:25:16.309Z,2.70
2023-03-05T06:27:43.946Z,2.67
2023-03-05T06:30:12.179Z,2.67
2023-03-05T06:32:39.377Z,2.77
2023-03-05T06:35:09.173Z,3.40
2023-03-05T06:37:36.078Z,3.30
2023-03-05T06:40:03.657Z,2.07
2023-03-05T06:42:30.631Z,2.73
2023-03-05T06:44:57.517Z,3.43
2023-03-05T06:47:24.415Z,2.70
2023-03-05T06:49:54.172Z,2.77
2023-03-05T06:52:21.046Z,3.40
2023-03-05T06:54:47.910Z,3.00
2023-03-05T06:57:14.782Z,3.57
2023-03-05T06:59:41.656Z,3.60
2023-03-05T07:02:11.525Z,3.07
2023-03-05T07:04:38.428Z,2.47
2023-03-05T07:07:05.758Z,2.83
2023-03-05T07:09:32.734Z,2.93
2023-03-05T07:11:59.702Z,3.50
2023-03-05T07:14:26.555Z,2.70
2023-03-05T07:16:53.462Z,3.17
2023-03-05T07:19:20.395Z,2.20
2023-03-05T07:21:47.562Z,2.77
2023-03-05T07:24:14.672Z,4.77
2023-03-05T07:26:41.628Z,2.63
2023-03-05T07:29:08.575Z,2.87
2023-03-05T07:31:35.495Z,2.67
2023-03-05T07:34:03.647Z,2.37
2023-03-05T07:36:31.262Z,2.20
2023-03-05T07:39:06.374Z,1.43
2023-03-05T07:41:33.323Z,2.00
2023-03-05T07:44:00.329Z,1.77
2023-03-05T07:46:30.024Z,2.70
2023-03-05T07:48:57.424Z,3.70
2023-03-05T07:51:32.450Z,4.40
2023-03-05T07:54:05.645Z,3.93
2023-03-05T07:56:36.246Z,3.90
2023-03-05T07:59:11.508Z,4.37
2023-03-05T08:01:38.867Z,4.43
2023-03-05T08:04:08.376Z,4.00
2023-03-05T08:06:38.499Z,4.90
2023-03-05T08:09:05.490Z,4.67
2023-03-05T08:11:32.652Z,3.70
2023-03-05T08:14:01.032Z,3.63
2023-03-05T08:16:28.545Z,3.60
2023-03-05T08:18:57.422Z,4.00
2023-03-05T08:21:35.810Z,3.97
2023-03-05T08:24:08.628Z,4.30
2023-03-05T08:26:38.426Z,5.57
2023-03-05T08:29:07.884Z,4.57
2023-03-05T08:31:35.325Z,3.90
2023-03-05T08:34:03.128Z,3.77
2023-03-05T08:36:30.517Z,3.47
2023-03-05T08:38:59.142Z,3.80
2023-03-05T08:41:26.114Z,3.30
2023-03-05T08:43:53.528Z,3.50
2023-03-05T08:46:20.894Z,4.27
2023-03-05T08:48:47.890Z,4.50
2023-03-05T08:51:18.194Z,3.27
2023-03-05T08:53:46.306Z,4.40
2023-03-05T08:56:14.391Z,3.00
2023-03-05T08:58:41.895Z,3.23
2023-03-05T09:01:09.106Z,3.70
2023-03-05T09:03:39.191Z,3.20
2023-03-05T09:06:09.100Z,5.00
2023-03-05T09:08:36.528Z,4.00
2023-03-05T09:11:05.824Z,4.60
2023-03-05T09:13:33.590Z,4.60
2023-03-05T09:16:05.949Z,3.73
2023-03-05T09:18:36.499Z,5.87
2023-03-05T09:21:13.116Z,3.33
2023-03-05T09:23:40.647Z,4.60
2023-03-05T09:26:12.121Z,2.67
2023-03-05T09:28:40.439Z,4.10
2023-03-05T09:31:08.969Z,3.97
2023-03-05T09:33:37.012Z,3.67
2023-03-05T09:36:06.247Z,4.50
2023-03-05T09:38:33.244Z,3.40
2023-03-05T09:41:08.155Z,2.73
2023-03-05T09:43:42.811Z,3.00
2023-03-05T09:46:22.738Z,5.20
2023-03-05T09:49:00.784Z,3.47
2023-03-05T09:51:36.645Z,3.33
2023-03-05T09:54:11.214Z,3.90
2023-03-05T09:56:43.131Z,2.73
2023-03-05T09:59:26.002Z,4.80
2023-03-05T10:01:56.032Z,2.70
2023-03-05T10:04:38.560Z,4.37
2023-03-05T10:07:14.082Z,3.60
2023-03-05T10:09:54.407Z,2.33
2023-03-05T10:12:42.886Z,3.10
2023-03-05T10:15:50.400Z,4.50
2023-03-05T10:18:45.654Z,5.00
2023-03-05T10:21:36.177Z,4.07
2023-03-05T10:24:22.129Z,3.13
2023-03-05T10:27:30.005Z,2.43
2023-03-05T10:30:09.036Z,4.77
2023-03-05T10:32:51.899Z,5.60
2023-03-05T10:35:41.921Z,3.30
2023-03-05T10:38:51.089Z,3.60
2023-03-05T10:41:21.038Z,3.13
2023-03-05T10:43:47.878Z,2.40
2023-03-05T10:46:21.061Z,3.70
2023-03-05T10:49:05.434Z,3.53
2023-03-05T10:51:44.314Z,5.53
2023-03-05T10:54:26.598Z,4.20
2023-03-05T10:57:12.585Z,3.23
2023-03-05T10:59:46.937Z,3.47
2023-03-05T11:02:14.082Z,3.80
2023-03-05T11:04:41.434Z,3.40
2023-03-05T11:07:17.792Z,3.67
2023-03-05T11:10:25.469Z,3.50
2023-03-05T11:12:54.015Z,2.87
2023-03-05T11:15:27.842Z,4.83
2023-03-05T11:18:21.181Z,4.97
2023-03-05T11:20:48.406Z,4.33
2023-03-05T11:23:25.241Z,4.03
2023-03-05T11:26:02.431Z,3.50
2023-03-05T11:28:35.653Z,3.60
2023-03-05T11:31:02.869Z,4.13
2023-03-05T11:33:30.747Z,2.70
2023-03-05T11:36:11.524Z,2.60
2023-03-05T11:39:05.560Z,2.63
2023-03-05T11:41:38.641Z,3.10
2023-03-05T11:44:13.645Z,2.73
2023-03-05T11:46:48.212Z,2.57
2023-03-05T11:49:21.351Z,3.97
2023-03-05T11:51:50.999Z,2.93
2023-03-05T11:54:26.694Z,2.13
2023-03-05T11:56:54.356Z,4.03
2023-03-05T11:59:28.994Z,2.80
2023-03-05T12:01:57.529Z,2.60
2023-03-05T12:04:25.092Z,2.40
2023-03-05T12:06:55.629Z,1.63
2023-03-05T12:09:37.968Z,3.07
2023-03-05T12:12:35.892Z,4.50
2023-03-05T12:15:17.678Z,4.53
2023-03-05T12:17:48.242Z,3.47
2023-03-05T12:20:25.324Z,13.43
2023-03-05T12:22:52.718Z,6.03
2023-03-05T12:25:32.890Z,8.60
2023-03-05T12:28:01.016Z,4.60
2023-03-05T12:30:34.013Z,4.20
2023-03-05T12:33:08.021Z,4.10
2023-03-05T12:35:37.766Z,5.00
2023-03-05T12:38:32.050Z,2.77
2023-03-05T12:41:37.136Z,5.13
2023-03-05T12:44:07.216Z,3.73
2023-03-05T12:46:44.876Z,3.30
2023-03-05T12:49:21.277Z,3.80
2023-03-05T12:51:49.879Z,4.93
2023-03-05T12:54:39.805Z,4.40
2023-03-05T12:57:15.241Z,3.00
2023-03-05T12:59:51.949Z,4.33
2023-03-05T13:02:39.223Z,4.90
2023-03-05T13:05:22.864Z,3.03
2023-03-05T13:07:50.998Z,4.70
2023-03-05T13:10:27.636Z,3.47
2023-03-05T13:12:58.523Z,3.90
2023-03-05T13:15:26.678Z,3.97
2023-03-05T13:18:03.331Z,5.67
2023-03-05T13:20:33.951Z,6.10
2023-03-05T13:23:24.870Z,10.60
2023-03-05T13:26:00.767Z,5.27
2023-03-05T13:28:28.247Z,9.33
2023-03-05T13:31:11.052Z,7.23
2023-03-05T13:33:38.002Z,4.70
2023-03-05T13:36:06.035Z,6.30
2023-03-05T13:38:40.226Z,7.63
2023-03-05T13:41:16.213Z,6.17
2023-03-05T13:43:46.099Z,6.47
2023-03-05T13:46:13.096Z,4.27
2023-03-05T13:48:43.088Z,5.20
2023-03-05T13:51:11.864Z,5.10
2023-03-05T13:53:38.846Z,5.77
2023-03-05T13:56:08.299Z,5.30
2023-03-05T13:58:56.902Z,4.60
2023-03-05T14:01:30.025Z,6.27
2023-03-05T14:04:03.178Z,4.60
2023-03-05T14:06:31.003Z,8.57
2023-03-05T14:09:07.075Z,4.60
2023-03-05T14:11:35.189Z,6.00
2023-03-05T14:14:09.709Z,8.07
2023-03-05T14:16:36.919Z,4.93
2023-03-05T14:19:07.260Z,4.03
2023-03-05T14:21:50.497Z,8.53
2023-03-05T14:24:28.511Z,4.10
2023-03-05T14:26:58.622Z,3.40
2023-03-05T14:29:27.951Z,4.73
2023-03-05T14:32:06.337Z,3.47
2023-03-05T14:34:38.146Z,6.20
2023-03-05T14:37:16.293Z,2.47
2023-03-05T14:39:52.788Z,3.97
2023-03-05T14:45:18.786Z,3.37
2023-03-05T14:47:46.056Z,3.10
2023-03-05T14:50:18.736Z,5.17
2023-03-05T14:52:47.153Z,4.50
2023-03-05T14:55:20.374Z,4.93
2023-03-05T14:57:48.504Z,3.37
2023-03-05T15:00:20.979Z,3.33
2023-03-05T15:02:48.308Z,3.30
2023-03-05T15:05:16.260Z,4.53
2023-03-05T15:07:45.269Z,3.13
2023-03-05T15:10:21.798Z,4.73
2023-03-05T15:12:50.454Z,3.40
2023-03-05T15:15:18.009Z,6.03
2023-03-05T15:17:47.875Z,3.30
2023-03-05T15:20:22.039Z,3.87
2023-03-05T15:22:48.942Z,3.33
2023-03-05T15:25:16.957Z,3.07
2023-03-05T15:27:45.145Z,4.20
2023-03-05T15:30:22.174Z,4.63
2023-03-05T15:32:49.673Z,7.20
2023-03-05T15:35:17.172Z,3.67
2023-03-05T15:37:44.139Z,4.27
2023-03-05T15:40:11.675Z,2.60
2023-03-05T15:42:39.185Z,5.67
2023-03-05T15:45:06.729Z,4.87
2023-03-05T15:47:33.714Z,3.97
2023-03-05T15:50:00.666Z,4.50
2023-03-05T15:52:27.688Z,4.17
2023-03-05T15:54:54.562Z,3.93
2023-03-05T15:57:24.702Z,4.70
2023-03-05T15:59:51.692Z,3.20
2023-03-05T16:02:18.922Z,4.77
2023-03-05T16:04:46.228Z,4.37
2023-03-05T16:07:14.452Z,4.77
2023-03-05T16:09:46.374Z,4.47
2023-03-05T16:12:18.215Z,11.70
2023-03-05T16:14:46.249Z,4.20
2023-03-05T16:17:14.949Z,6.10
2023-03-05T16:19:45.583Z,5.03
2023-03-05T16:22:12.658Z,5.63
2023-03-05T16:24:39.638Z,4.90
2023-03-05T16:27:07.946Z,5.80
2023-03-05T16:29:34.971Z,5.90
2023-03-05T16:32:04.241Z,4.50
2023-03-05T16:34:33.616Z,3.40
2023-03-05T16:37:02.181Z,3.30
2023-03-05T16:39:29.120Z,4.93
2023-03-05T16:41:57.698Z,9.30
2023-03-05T16:44:24.789Z,5.93
2023-03-05T16:46:53.903Z,7.50
2023-03-05T16:49:21.827Z,7.27
2023-03-05T16:51:49.013Z,4.87
2023-03-05T16:54:15.856Z,3.93
2023-03-05T16:56:42.773Z,4.40
2023-03-05T16:59:09.759Z,5.20
2023-03-05T17:01:36.651Z,4.80
2023-03-05T17:04:03.731Z,6.57
2023-03-05T17:06:32.362Z,5.13
2023-03-05T17:09:01.387Z,4.80
2023-03-05T17:11:28.306Z,6.90
2023-03-05T17:13:55.259Z,9.13
2023-03-05T17:16:22.557Z,6.80
2023-03-05T17:18:49.529Z,6.27
2023-03-05T17:21:16.824Z,6.57
2023-03-05T17:23:43.808Z,5.40
2023-03-05T17:26:14.990Z,4.53
2023-03-05T17:28:42.681Z,4.23
2023-03-05T17:31:10.143Z,5.70
2023-03-05T17:33:37.811Z,6.30
2023-03-05T17:36:05.629Z,5.57
2023-03-05T17:38:32.719Z,4.00
2023-03-05T17:40:59.587Z,3.30
2023-03-05T17:43:26.601Z,4.43
2023-03-05T17:45:53.611Z,5.67
2023-03-05T17:48:20.503Z,5.57
2023-03-05T17:50:47.451Z,7.83
2023-03-05T17:53:14.474Z,5.57
2023-03-05T17:55:41.627Z,6.63
2023-03-05T17:58:09.099Z,7.50
2023-03-05T18:00:36.947Z,7.83
2023-03-05T18:03:04.881Z,6.57
2023-03-05T18:05:32.185Z,5.87
2023-03-05T18:08:00.693Z,7.27
2023-03-05T18:10:28.554Z,5.47
2023-03-05T18:12:55.554Z,4.67
2023-03-05T18:15:24.487Z,8.63
2023-03-05T18:17:52.346Z,6.60
2023-03-05T18:20:25.029Z,5.27
2023-03-05T18:22:51.992Z,8.30
2023-03-05T18:25:19.180Z,3.83
2023-03-05T18:27:46.052Z,6.20
2023-03-05T18:30:13.252Z,4.67
2023-03-05T18:32:40.276Z,6.40
2023-03-05T18:35:07.710Z,5.80
2023-03-05T18:37:37.985Z,7.50
2023-03-05T18:40:09.646Z,7.27
2023-03-05T18:42:37.265Z,8.73
2023-03-05T18:45:10.348Z,4.00
2023-03-05T18:47:39.070Z,7.10
2023-03-05T18:50:07.216Z,8.20
2023-03-05T18:52:34.317Z,5.87
2023-03-05T18:55:01.302Z,4.57
2023-03-05T18:57:28.390Z,7.27
2023-03-05T18:59:55.330Z,6.57
2023-03-05T19:02:22.211Z,7.10
2023-03-05T19:04:49.394Z,5.87
2023-03-05T19:07:16.402Z,14.37
2023-03-05T19:09:53.549Z,12.73
2023-03-05T19:12:26.427Z,12.67
2023-03-05T19:14:53.548Z,11.23
2023-03-05T19:17:20.477Z,23.10
2023-03-05T19:19:55.518Z,22.13
2023-03-05T19:22:23.150Z,14.37
2023-03-05T19:24:50.039Z,7.30
2023-03-05T19:27:17.029Z,5.50
2023-03-05T19:29:44.286Z,4.43
2023-03-05T19:32:14.309Z,4.40
2023-03-05T19:34:42.312Z,5.33
2023-03-05T19:37:09.349Z,4.10
2023-03-05T19:39:36.775Z,4.37
2023-03-05T19:42:04.523Z,5.50
2023-03-05T19:44:31.629Z,4.03
2023-03-05T19:46:58.921Z,3.87
2023-03-05T19:49:25.856Z,3.50
2023-03-05T19:51:52.843Z,4.07
2023-03-05T19:54:21.225Z,5.33
2023-03-05T19:56:49.268Z,6.10
2023-03-05T19:59:18.115Z,3.60
2023-03-05T20:01:45.863Z,2.77
2023-03-05T20:04:15.821Z,3.23
2023-03-05T20:06:42.983Z,3.50
2023-03-05T20:09:10.200Z,3.90
2023-03-05T20:11:37.585Z,3.93
2023-03-05T20:14:04.894Z,3.97
2023-03-05T20:16:37.636Z,3.10
2023-03-05T20:19:06.260Z,4.67
2023-03-05T20:21:36.461Z,4.53
2023-03-05T20:24:08.558Z,3.80
2023-03-05T20:26:38.046Z,4.40
2023-03-05T20:29:05.422Z,4.60
2023-03-05T20:31:36.922Z,3.87
2023-03-05T20:34:12.464Z,3.63
2023-03-05T20:36:40.237Z,2.90
2023-03-05T20:39:07.481Z,2.60
2023-03-05T20:41:36.525Z,3.73
2023-03-05T20:44:04.146Z,4.17
2023-03-05T20:46:35.223Z,4.07
2023-03-05T20:49:05.184Z,3.63
2023-03-05T20:51:37.870Z,4.50
2023-03-05T20:54:12.042Z,4.53
2023-03-05T20:56:39.737Z,3.87
2023-03-05T20:59:09.123Z,5.47
2023-03-05T21:01:38.478Z,4.90
2023-03-05T21:04:06.325Z,6.30
2023-03-05T21:06:33.888Z,7.37
2023-03-05T21:09:01.018Z,5.40
2023-03-05T21:11:28.259Z,7.27
2023-03-05T21:13:55.289Z,5.03
2023-03-05T21:16:24.993Z,3.43
2023-03-05T21:18:52.620Z,5.67
2023-03-05T21:21:19.623Z,5.93
2023-03-05T21:23:47.398Z,4.63
2023-03-05T21:26:15.094Z,5.20
2023-03-05T21:28:42.172Z,4.07
2023-03-05T21:31:14.280Z,5.20
2023-03-05T21:33:42.177Z,5.23
2023-03-05T21:36:09.302Z,5.03
2023-03-05T21:38:36.542Z,4.30
2023-03-05T21:41:06.082Z,4.20
2023-03-05T21:43:33.522Z,5.60
2023-03-05T21:46:02.087Z,5.53
2023-03-05T21:48:29.320Z,5.07
2023-03-05T21:50:57.311Z,4.90
2023-03-05T21:53:24.740Z,5.30
2023-03-05T21:56:10.877Z,5.10
2023-03-05T21:58:37.832Z,5.50
2023-03-05T22:01:05.239Z,3.87
2023-03-05T22:03:32.335Z,6.10
2023-03-05T22:05:59.436Z,5.80
2023-03-05T22:08:26.406Z,4.67
2023-03-05T22:10:54.398Z,3.27
2023-03-05T22:13:21.803Z,3.63
2023-03-05T22:15:54.669Z,3.67
2023-03-05T22:18:30.083Z,4.93
2023-03-05T22:20:58.033Z,4.00
2023-03-05T22:23:29.262Z,2.83
2023-03-05T22:26:02.123Z,2.33
2023-03-05T22:28:30.152Z,3.83
2023-03-05T22:30:57.824Z,3.40
2023-03-05T22:33:25.704Z,4.07
2023-03-05T22:35:53.302Z,3.17
2023-03-05T22:38:20.358Z,4.03
2023-03-05T22:40:49.458Z,3.50
2023-03-05T22:43:18.326Z,3.57
2023-03-05T22:45:45.775Z,2.87
2023-03-05T22:48:12.956Z,2.73
2023-03-05T22:50:41.220Z,2.87
2023-03-05T22:53:08.804Z,3.20
2023-03-05T22:55:42.066Z,3.10
2023-03-05T22:58:09.545Z,3.27
2023-03-05T23:00:36.763Z,3.47
2023-03-05T23:03:03.845Z,4.07
2023-03-05T23:05:30.780Z,3.77
2023-03-05T23:07:57.701Z,4.20
2023-03-05T23:10:27.450Z,3.37
2023-03-05T23:12:56.282Z,3.60
2023-03-05T23:15:26.961Z,4.00
2023-03-05T23:17:54.085Z,4.10
2023-03-05T23:20:24.013Z,5.20
2023-03-05T23:22:52.988Z,3.17
2023-03-05T23:25:20.803Z,4.00
2023-03-05T23:27:48.091Z,4.13
2023-03-05T23:30:17.537Z,5.20
2023-03-05T23:32:48.038Z,4.33
2023-03-05T23:35:18.756Z,3.13
2023-03-05T23:37:45.706Z,3.77
2023-03-05T23:40:18.086Z,5.93
2023-03-05T23:42:45.595Z,4.60
2023-03-05T23:45:14.307Z,3.77
2023-03-05T23:47:42.198Z,4.63
2023-03-05T23:50:14.259Z,4.87
2023-03-05T23:52:42.562Z,4.10
2023-03-05T23:55:16.450Z,5.00
2023-03-05T23:57:43.970Z,5.90
